Kholmogory, Russia
Current Conditions -  °F | °C
As of 10:00 AM on Friday 28 Nov 2014 (Local Time) from ULAA Reporting Station
Light Snow Light Snow  
Wind Chill: 26°   Ceiling: 1300
Heat Index: 32°   Visibility: 2.8mi
Dew Point: 32°   Wind: 7mph
Humidity: 100%   Direction: 280°W
Pressure: 30.39"   Gusts: NA
Location:  64.23°N, 41.65°E
Report Text: ULAA 280700Z 28003MPS 250V310 4600 -SNRA BR OVC013 00/00 Q1029 TEMPO 0400 +SHSN FZFG BKN002CB RMK QFE770/1027 SC040
Loading
Personal Weather Stations






























Interactive Weather Map New forecast layout! Learn more

10-Day Weather Forecast

Advertisements
Track Severe Weather on mobile